ITY620 LIRF-KLAX
Flight info
| Callsign | ITY620 |
|---|---|
| Flight time | N/A |
| Altitude | 34000 |
| Route | NEMBO DCT ELB DCT NORNI DCT OTMUV DCT NEDED DCT ATMAD DCT GIGUS UP860 TIS DCT DIDRU DCT TUPAR DCT NTS DCT NORBU DCT GAPLI/N0487F360 DCT LIMRI/M085F360 DCT 53N020W 55N030W 56N040W 56N050W DCT JANJO/N0493F360 DCT DENSO/N0494F380 DCT AGLOL DCT MERNU DCT XEXUL DCT BLUOX/N0487F400 DCT RAP J158 DDY J107 NORRA J100 LAS Q70 HAILO DCT KOPLE BOGET2 |
| Aircraft | A359/H-SDE2E3GHIJ1J3J4J5LM1ORWXY/LB1D1 |
Departure
| Time | N/A |
|---|---|
| Airport | Rome–Fiumicino Leonardo da Vinci International Airport (LIRF) |
Arrival
| Time | 2026-05-04 18:28 |
|---|---|
| Airport | Los Angeles International Airport (KLAX) |
| Time | Latitude | Longitude | Altitude | Speed | Heading |
|---|---|---|---|---|---|
| 2026-05-04 15:35 | 45.92501 | -99.31385 | 37772 ft | 456 kts | 241° |
| 2026-05-04 15:35 | 45.90667 | -99.35098 | 37781 ft | 456 kts | 241° |
| 2026-05-04 15:36 | 45.85158 | -99.46226 | 37781 ft | 456 kts | 241° |
| 2026-05-04 15:36 | 45.81476 | -99.53638 | 37785 ft | 457 kts | 241° |
| 2026-05-04 15:37 | 45.77782 | -99.61055 | 37785 ft | 457 kts | 241° |
| 2026-05-04 15:37 | 45.74110 | -99.68406 | 37777 ft | 456 kts | 241° |
| 2026-05-04 15:38 | 45.70422 | -99.75770 | 37791 ft | 455 kts | 240° |
| 2026-05-04 15:38 | 45.66731 | -99.83124 | 37771 ft | 455 kts | 240° |
| 2026-05-04 15:39 | 45.63040 | -99.90461 | 37793 ft | 454 kts | 240° |
| 2026-05-04 15:40 | 45.57497 | -100.01439 | 37793 ft | 454 kts | 240° |
| 2026-05-04 15:40 | 45.53794 | -100.08750 | 37797 ft | 455 kts | 240° |
| 2026-05-04 15:41 | 45.50085 | -100.16053 | 37764 ft | 454 kts | 240° |
| 2026-05-04 15:41 | 45.46386 | -100.23317 | 37804 ft | 453 kts | 240° |
| 2026-05-04 15:42 | 45.42681 | -100.30576 | 37800 ft | 453 kts | 240° |
| 2026-05-04 15:42 | 45.38976 | -100.37817 | 37804 ft | 453 kts | 240° |
| 2026-05-04 15:43 | 45.35263 | -100.45054 | 37808 ft | 453 kts | 240° |
| 2026-05-04 15:43 | 45.31549 | -100.52275 | 37804 ft | 452 kts | 240° |
| 2026-05-04 15:44 | 45.27833 | -100.59482 | 37792 ft | 452 kts | 240° |
| 2026-05-04 15:44 | 45.24115 | -100.66673 | 37814 ft | 452 kts | 240° |
| 2026-05-04 15:45 | 45.20395 | -100.73850 | 37822 ft | 452 kts | 239° |
| 2026-05-04 15:45 | 45.16671 | -100.81018 | 37822 ft | 452 kts | 239° |
| 2026-05-04 15:46 | 45.12943 | -100.88174 | 37828 ft | 451 kts | 239° |
| 2026-05-04 15:46 | 45.09210 | -100.95324 | 37835 ft | 452 kts | 239° |
| 2026-05-04 15:47 | 45.05473 | -101.02462 | 37836 ft | 451 kts | 239° |
| 2026-05-04 15:47 | 45.01732 | -101.09591 | 37843 ft | 452 kts | 239° |
| 2026-05-04 15:48 | 44.97985 | -101.16714 | 37843 ft | 452 kts | 239° |
| 2026-05-04 15:48 | 44.92351 | -101.27387 | 37851 ft | 452 kts | 239° |
| 2026-05-04 15:49 | 44.88593 | -101.34486 | 37850 ft | 452 kts | 239° |
| 2026-05-04 15:49 | 44.84828 | -101.41581 | 37852 ft | 452 kts | 239° |
| 2026-05-04 15:50 | 44.81059 | -101.48667 | 37858 ft | 452 kts | 239° |
| 2026-05-04 15:50 | 44.77280 | -101.55752 | 37855 ft | 453 kts | 239° |
| 2026-05-04 15:51 | 44.73490 | -101.62843 | 37860 ft | 454 kts | 239° |
| 2026-05-04 15:51 | 44.69690 | -101.69932 | 37859 ft | 454 kts | 239° |
| 2026-05-04 15:52 | 44.65887 | -101.77009 | 37862 ft | 454 kts | 238° |
| 2026-05-04 15:52 | 44.62102 | -101.84036 | 37874 ft | 455 kts | 238° |
| 2026-05-04 15:53 | 44.58255 | -101.91161 | 37862 ft | 455 kts | 238° |
| 2026-05-04 15:53 | 44.54426 | -101.98235 | 37872 ft | 456 kts | 238° |
| 2026-05-04 15:54 | 44.50611 | -102.05268 | 37878 ft | 458 kts | 238° |
| 2026-05-04 15:54 | 44.46748 | -102.12371 | 37880 ft | 459 kts | 238° |
| 2026-05-04 15:55 | 44.42875 | -102.19472 | 38027 ft | 458 kts | 238° |
| 2026-05-04 15:55 | 44.40938 | -102.23014 | 38181 ft | 457 kts | 238° |
| 2026-05-04 15:55 | 44.39009 | -102.26541 | 38321 ft | 456 kts | 238° |
| 2026-05-04 15:56 | 44.37084 | -102.30055 | 38465 ft | 455 kts | 238° |
| 2026-05-04 15:56 | 44.35159 | -102.33567 | 38594 ft | 455 kts | 238° |
| 2026-05-04 15:56 | 44.33235 | -102.37072 | 38715 ft | 454 kts | 238° |
| 2026-05-04 15:56 | 44.31311 | -102.40574 | 38794 ft | 454 kts | 238° |
| 2026-05-04 15:57 | 44.29389 | -102.44067 | 38908 ft | 454 kts | 238° |
| 2026-05-04 15:57 | 44.27466 | -102.47559 | 39007 ft | 454 kts | 238° |
| 2026-05-04 15:57 | 44.25540 | -102.51049 | 39131 ft | 454 kts | 237° |
| 2026-05-04 15:57 | 44.23616 | -102.54535 | 39248 ft | 454 kts | 237° |
| 2026-05-04 15:58 | 44.21688 | -102.58021 | 39350 ft | 454 kts | 237° |
| 2026-05-04 15:58 | 44.19762 | -102.61500 | 39486 ft | 454 kts | 237° |
| 2026-05-04 15:58 | 44.17834 | -102.64979 | 39595 ft | 454 kts | 237° |
| 2026-05-04 15:58 | 44.15905 | -102.68455 | 39703 ft | 454 kts | 237° |
| 2026-05-04 15:59 | 44.13973 | -102.71931 | 39835 ft | 454 kts | 237° |
| 2026-05-04 15:59 | 44.12042 | -102.75403 | 39901 ft | 455 kts | 237° |
| 2026-05-04 15:59 | 44.08147 | -102.82398 | 39902 ft | 459 kts | 237° |
| 2026-05-04 16:00 | 44.04217 | -102.89434 | 39914 ft | 462 kts | 237° |
| 2026-05-04 16:00 | 44.00263 | -102.96501 | 39915 ft | 463 kts | 237° |
| 2026-05-04 16:01 | 43.96995 | -103.04098 | 39917 ft | 455 kts | 251° |
| 2026-05-04 16:01 | 43.94703 | -103.12253 | 39915 ft | 453 kts | 254° |
| 2026-05-04 16:02 | 43.92637 | -103.20516 | 39897 ft | 453 kts | 254° |
| 2026-05-04 16:03 | 43.89528 | -103.32920 | 39890 ft | 454 kts | 254° |
| 2026-05-04 16:03 | 43.87427 | -103.41123 | 39898 ft | 455 kts | 254° |
| 2026-05-04 16:04 | 43.85297 | -103.49374 | 39913 ft | 455 kts | 253° |
| 2026-05-04 16:04 | 43.82093 | -103.61734 | 39925 ft | 455 kts | 253° |
| 2026-05-04 16:05 | 43.80295 | -103.68648 | 39926 ft | 455 kts | 253° |
| 2026-05-04 16:06 | 43.77068 | -103.81007 | 39901 ft | 455 kts | 253° |
| 2026-05-04 16:07 | 43.72744 | -103.97463 | 39868 ft | 455 kts | 253° |
| 2026-05-04 16:08 | 43.68395 | -104.13904 | 39836 ft | 455 kts | 253° |
| 2026-05-04 16:09 | 43.62958 | -104.34371 | 39834 ft | 455 kts | 255° |
| 2026-05-04 16:10 | 43.58719 | -104.50811 | 39865 ft | 455 kts | 255° |
| 2026-05-04 16:11 | 43.54298 | -104.67192 | 39874 ft | 455 kts | 254° |
| 2026-05-04 16:12 | 43.47534 | -104.91657 | 39874 ft | 456 kts | 251° |
| 2026-05-04 16:13 | 43.42933 | -105.07950 | 39883 ft | 457 kts | 252° |
| 2026-05-04 16:14 | 43.38424 | -105.24253 | 39889 ft | 456 kts | 252° |
| 2026-05-04 16:16 | 43.32754 | -105.44589 | 39889 ft | 457 kts | 251° |
| 2026-05-04 16:17 | 43.27034 | -105.64930 | 39878 ft | 457 kts | 251° |
| 2026-05-04 16:18 | 43.22425 | -105.81201 | 39897 ft | 458 kts | 251° |
| 2026-05-04 16:19 | 43.16642 | -106.01467 | 39883 ft | 458 kts | 251° |
| 2026-05-04 16:20 | 43.10801 | -106.21774 | 39929 ft | 459 kts | 251° |
| 2026-05-04 16:21 | 43.06184 | -106.33284 | 39965 ft | 464 kts | 239° |
| 2026-05-04 16:22 | 43.02447 | -106.40484 | 39981 ft | 465 kts | 237° |
| 2026-05-04 16:23 | 42.91054 | -106.61951 | 39999 ft | 465 kts | 238° |
| 2026-05-04 16:24 | 42.83466 | -106.76255 | 39881 ft | 467 kts | 237° |
| 2026-05-04 16:25 | 42.79650 | -106.83422 | 39878 ft | 467 kts | 237° |
| 2026-05-04 16:26 | 42.66297 | -107.08358 | 39865 ft | 467 kts | 237° |
| 2026-05-04 16:28 | 42.56703 | -107.26150 | 39852 ft | 467 kts | 237° |
| 2026-05-04 16:29 | 42.43242 | -107.50927 | 39807 ft | 464 kts | 237° |
| 2026-05-04 16:31 | 42.33651 | -107.68464 | 39791 ft | 464 kts | 237° |
| 2026-05-04 16:32 | 42.22141 | -107.89371 | 39775 ft | 460 kts | 237° |
| 2026-05-04 16:33 | 42.14499 | -108.03174 | 39776 ft | 458 kts | 237° |
| 2026-05-04 16:34 | 42.08802 | -108.13423 | 39777 ft | 458 kts | 237° |
| 2026-05-04 16:35 | 41.97320 | -108.33973 | 39779 ft | 458 kts | 237° |
| 2026-05-04 16:36 | 41.91566 | -108.44219 | 39763 ft | 457 kts | 237° |
| 2026-05-04 16:37 | 41.85841 | -108.54375 | 39785 ft | 453 kts | 237° |
| 2026-05-04 16:38 | 41.78228 | -108.67837 | 39791 ft | 453 kts | 236° |
| 2026-05-04 16:39 | 41.68692 | -108.84609 | 39922 ft | 452 kts | 236° |
| 2026-05-04 16:40 | 41.61071 | -108.97947 | 39987 ft | 449 kts | 237° |
| 2026-05-04 16:41 | 41.50299 | -109.13131 | 39972 ft | 452 kts | 229° |
| 2026-05-04 16:42 | 41.43615 | -109.21908 | 39810 ft | 451 kts | 229° |
| 2026-05-04 16:43 | 41.39150 | -109.27778 | 39811 ft | 451 kts | 229° |
| 2026-05-04 16:43 | 41.32461 | -109.36561 | 39819 ft | 449 kts | 230° |
| 2026-05-04 16:45 | 41.19137 | -109.53981 | 39806 ft | 447 kts | 229° |
| 2026-05-04 16:46 | 41.08038 | -109.68409 | 39810 ft | 447 kts | 229° |
| 2026-05-04 16:47 | 40.99146 | -109.79916 | 39823 ft | 447 kts | 229° |
| 2026-05-04 16:48 | 40.90244 | -109.91392 | 39835 ft | 447 kts | 229° |
| 2026-05-04 16:49 | 40.81336 | -110.02827 | 39857 ft | 445 kts | 229° |
| 2026-05-04 16:50 | 40.72475 | -110.14155 | 39866 ft | 443 kts | 229° |
| 2026-05-04 16:51 | 40.65837 | -110.22625 | 39883 ft | 442 kts | 229° |
| 2026-05-04 16:52 | 40.57005 | -110.33840 | 39855 ft | 442 kts | 229° |
| 2026-05-04 16:53 | 40.50381 | -110.42230 | 39869 ft | 441 kts | 229° |
| 2026-05-04 16:54 | 40.42237 | -110.52502 | 39869 ft | 442 kts | 229° |
| 2026-05-04 16:55 | 40.28923 | -110.69227 | 39855 ft | 442 kts | 229° |
| 2026-05-04 16:56 | 40.17838 | -110.83072 | 39859 ft | 441 kts | 229° |
| 2026-05-04 16:57 | 40.11169 | -110.91374 | 39862 ft | 441 kts | 228° |
| 2026-05-04 16:58 | 40.02251 | -111.02430 | 39848 ft | 442 kts | 228° |
| 2026-05-04 17:00 | 39.88846 | -111.18988 | 39860 ft | 443 kts | 228° |
| 2026-05-04 17:01 | 39.77646 | -111.32740 | 39854 ft | 443 kts | 228° |
| 2026-05-04 17:02 | 39.68656 | -111.43742 | 39846 ft | 444 kts | 227° |
| 2026-05-04 17:03 | 39.61895 | -111.51984 | 39853 ft | 445 kts | 227° |
| 2026-05-04 17:03 | 39.55161 | -111.60171 | 39842 ft | 445 kts | 227° |
| 2026-05-04 17:04 | 39.46124 | -111.71116 | 39848 ft | 445 kts | 227° |
| 2026-05-04 17:05 | 39.37057 | -111.82063 | 39824 ft | 446 kts | 227° |
| 2026-05-04 17:06 | 39.30247 | -111.90258 | 39827 ft | 446 kts | 227° |
| 2026-05-04 17:07 | 39.24199 | -111.97518 | 39824 ft | 447 kts | 227° |
| 2026-05-04 17:07 | 39.18882 | -112.03883 | 39823 ft | 444 kts | 227° |
| 2026-05-04 17:08 | 39.12115 | -112.11962 | 39868 ft | 441 kts | 227° |
| 2026-05-04 17:09 | 39.07621 | -112.17316 | 39899 ft | 440 kts | 227° |
| 2026-05-04 17:09 | 39.03128 | -112.22660 | 39925 ft | 439 kts | 227° |
| 2026-05-04 17:10 | 38.91895 | -112.35976 | 39939 ft | 438 kts | 227° |
| 2026-05-04 17:11 | 38.87437 | -112.41240 | 39938 ft | 433 kts | 227° |
| 2026-05-04 17:12 | 38.80804 | -112.49061 | 39899 ft | 430 kts | 227° |
| 2026-05-04 17:13 | 38.69842 | -112.61945 | 39804 ft | 428 kts | 227° |
| 2026-05-04 17:14 | 38.61063 | -112.72216 | 39825 ft | 423 kts | 227° |
| 2026-05-04 17:15 | 38.54584 | -112.79775 | 39876 ft | 419 kts | 227° |
| 2026-05-04 17:16 | 38.45957 | -112.89819 | 39941 ft | 420 kts | 227° |
| 2026-05-04 17:17 | 38.37306 | -112.99820 | 39944 ft | 421 kts | 225° |
| 2026-05-04 17:18 | 38.27539 | -113.08292 | 39902 ft | 426 kts | 218° |
| 2026-05-04 17:19 | 38.17510 | -113.16382 | 39836 ft | 427 kts | 218° |
| 2026-05-04 17:20 | 38.07491 | -113.24480 | 39788 ft | 423 kts | 219° |
| 2026-05-04 17:20 | 38.00129 | -113.30416 | 39794 ft | 418 kts | 219° |
| 2026-05-04 17:21 | 37.90311 | -113.38320 | 39837 ft | 418 kts | 219° |
| 2026-05-04 17:22 | 37.85397 | -113.42265 | 39847 ft | 418 kts | 218° |
| 2026-05-04 17:23 | 37.75620 | -113.50036 | 39817 ft | 412 kts | 219° |
| 2026-05-04 17:24 | 37.68358 | -113.55806 | 39816 ft | 411 kts | 219° |
| 2026-05-04 17:25 | 37.58670 | -113.63487 | 39820 ft | 411 kts | 219° |
| 2026-05-04 17:26 | 37.49086 | -113.71052 | 39827 ft | 403 kts | 219° |
| 2026-05-04 17:27 | 37.37201 | -113.80425 | 39824 ft | 405 kts | 219° |
| 2026-05-04 17:28 | 37.27644 | -113.87912 | 39816 ft | 401 kts | 219° |
| 2026-05-04 17:29 | 37.13526 | -113.98951 | 39812 ft | 398 kts | 219° |
| 2026-05-04 17:31 | 37.01780 | -114.08095 | 39803 ft | 396 kts | 218° |
| 2026-05-04 17:32 | 36.90158 | -114.17108 | 39798 ft | 394 kts | 218° |
| 2026-05-04 17:33 | 36.80845 | -114.24312 | 39807 ft | 394 kts | 218° |
| 2026-05-04 17:34 | 36.74308 | -114.30324 | 39803 ft | 385 kts | 229° |
| 2026-05-04 17:34 | 36.72420 | -114.32686 | 39802 ft | 385 kts | 229° |
| 2026-05-04 17:35 | 36.63249 | -114.44790 | 39805 ft | 383 kts | 230° |
| 2026-05-04 17:36 | 36.59586 | -114.49609 | 39802 ft | 383 kts | 229° |
| 2026-05-04 17:36 | 36.55920 | -114.54415 | 39803 ft | 383 kts | 229° |
| 2026-05-04 17:37 | 36.52249 | -114.59216 | 39805 ft | 383 kts | 229° |
| 2026-05-04 17:37 | 36.48579 | -114.64010 | 39804 ft | 383 kts | 229° |
| 2026-05-04 17:38 | 36.44907 | -114.68804 | 39807 ft | 384 kts | 230° |
| 2026-05-04 17:38 | 36.41212 | -114.73620 | 39816 ft | 386 kts | 230° |
| 2026-05-04 17:39 | 36.35649 | -114.80851 | 39830 ft | 386 kts | 230° |
| 2026-05-04 17:39 | 36.32550 | -114.84835 | 39838 ft | 386 kts | 229° |
| 2026-05-04 17:40 | 36.28793 | -114.89601 | 39845 ft | 386 kts | 229° |
| 2026-05-04 17:40 | 36.25035 | -114.94363 | 39852 ft | 386 kts | 229° |
| 2026-05-04 17:41 | 36.21279 | -114.99126 | 39851 ft | 387 kts | 229° |
| 2026-05-04 17:41 | 36.17522 | -115.03890 | 39850 ft | 386 kts | 229° |
| 2026-05-04 17:42 | 36.13767 | -115.08645 | 39900 ft | 386 kts | 229° |
| 2026-05-04 17:42 | 36.10007 | -115.13400 | 39907 ft | 387 kts | 229° |
| 2026-05-04 17:43 | 36.06624 | -115.18522 | 39905 ft | 384 kts | 236° |
| 2026-05-04 17:43 | 36.03613 | -115.23969 | 39905 ft | 384 kts | 237° |
| 2026-05-04 17:44 | 36.00660 | -115.29462 | 39924 ft | 384 kts | 237° |
| 2026-05-04 17:44 | 35.97705 | -115.34957 | 39918 ft | 384 kts | 237° |
| 2026-05-04 17:45 | 35.94740 | -115.40437 | 39919 ft | 384 kts | 237° |
| 2026-05-04 17:45 | 35.91770 | -115.45899 | 39929 ft | 383 kts | 237° |
| 2026-05-04 17:46 | 35.88799 | -115.51358 | 39933 ft | 384 kts | 237° |
| 2026-05-04 17:46 | 35.85824 | -115.56815 | 39937 ft | 384 kts | 237° |
| 2026-05-04 17:47 | 35.82846 | -115.62271 | 39932 ft | 383 kts | 237° |
| 2026-05-04 17:47 | 35.79892 | -115.67678 | 39934 ft | 383 kts | 236° |
| 2026-05-04 17:48 | 35.76914 | -115.73114 | 39934 ft | 383 kts | 236° |
| 2026-05-04 17:48 | 35.73933 | -115.78548 | 39937 ft | 383 kts | 236° |
| 2026-05-04 17:49 | 35.70953 | -115.83974 | 39937 ft | 383 kts | 236° |
| 2026-05-04 17:49 | 35.67971 | -115.89395 | 39930 ft | 383 kts | 236° |
| 2026-05-04 17:50 | 35.64986 | -115.94813 | 39931 ft | 383 kts | 236° |
| 2026-05-04 17:50 | 35.62031 | -116.00269 | 39929 ft | 384 kts | 237° |
| 2026-05-04 17:51 | 35.59219 | -116.05853 | 39922 ft | 384 kts | 238° |
| 2026-05-04 17:51 | 35.56429 | -116.11450 | 39922 ft | 384 kts | 238° |
| 2026-05-04 17:52 | 35.53626 | -116.17004 | 39915 ft | 377 kts | 237° |
| 2026-05-04 17:52 | 35.50878 | -116.22407 | 39915 ft | 371 kts | 237° |
| 2026-05-04 17:53 | 35.48147 | -116.27759 | 39905 ft | 370 kts | 237° |
| 2026-05-04 17:53 | 35.45409 | -116.33122 | 39922 ft | 371 kts | 237° |
| 2026-05-04 17:54 | 35.42661 | -116.38489 | 39930 ft | 372 kts | 237° |
| 2026-05-04 17:54 | 35.39908 | -116.43858 | 39941 ft | 372 kts | 237° |
| 2026-05-04 17:55 | 35.37154 | -116.49223 | 39950 ft | 372 kts | 237° |
| 2026-05-04 17:55 | 35.34397 | -116.54588 | 39960 ft | 372 kts | 237° |
| 2026-05-04 17:56 | 35.31634 | -116.59953 | 39967 ft | 374 kts | 237° |
| 2026-05-04 17:56 | 35.28849 | -116.65356 | 39964 ft | 376 kts | 237° |
| 2026-05-04 17:57 | 35.26060 | -116.70756 | 39662 ft | 375 kts | 237° |
| 2026-05-04 17:57 | 35.24665 | -116.73455 | 39424 ft | 375 kts | 237° |
| 2026-05-04 17:57 | 35.23273 | -116.76145 | 39187 ft | 373 kts | 237° |
| 2026-05-04 17:58 | 35.21890 | -116.78816 | 38952 ft | 371 kts | 237° |
| 2026-05-04 17:58 | 35.20515 | -116.81470 | 38724 ft | 369 kts | 237° |
| 2026-05-04 17:58 | 35.19142 | -116.84118 | 38463 ft | 368 kts | 237° |
| 2026-05-04 17:58 | 35.17772 | -116.86760 | 38186 ft | 367 kts | 237° |
| 2026-05-04 17:59 | 35.16400 | -116.89403 | 37946 ft | 368 kts | 237° |
| 2026-05-04 17:59 | 35.15026 | -116.92047 | 37657 ft | 369 kts | 237° |
| 2026-05-04 17:59 | 35.12294 | -116.97301 | 37158 ft | 369 kts | 237° |
| 2026-05-04 18:00 | 35.10920 | -116.99939 | 36884 ft | 368 kts | 237° |
| 2026-05-04 18:00 | 35.09545 | -117.02578 | 36625 ft | 368 kts | 237° |
| 2026-05-04 18:00 | 35.08170 | -117.05215 | 36354 ft | 367 kts | 237° |
| 2026-05-04 18:00 | 35.06802 | -117.07835 | 35796 ft | 364 kts | 237° |
| 2026-05-04 18:01 | 35.05442 | -117.10437 | 35113 ft | 364 kts | 236° |
| 2026-05-04 18:01 | 35.04079 | -117.13044 | 34357 ft | 365 kts | 236° |
| 2026-05-04 18:01 | 35.02710 | -117.15659 | 33513 ft | 366 kts | 236° |
| 2026-05-04 18:02 | 34.99956 | -117.20912 | 31824 ft | 369 kts | 236° |
| 2026-05-04 18:02 | 34.98562 | -117.23568 | 30922 ft | 373 kts | 236° |
| 2026-05-04 18:02 | 34.97156 | -117.26245 | 30026 ft | 378 kts | 236° |
| 2026-05-04 18:02 | 34.95726 | -117.28966 | 28886 ft | 384 kts | 237° |
| 2026-05-04 18:03 | 34.94285 | -117.31706 | 28155 ft | 382 kts | 237° |
| 2026-05-04 18:03 | 34.92859 | -117.34419 | 27509 ft | 378 kts | 237° |
| 2026-05-04 18:03 | 34.91443 | -117.37110 | 26869 ft | 376 kts | 237° |
| 2026-05-04 18:03 | 34.90036 | -117.39782 | 26201 ft | 374 kts | 237° |
| 2026-05-04 18:04 | 34.88638 | -117.42435 | 25546 ft | 372 kts | 237° |
| 2026-05-04 18:04 | 34.87239 | -117.45085 | 24867 ft | 371 kts | 237° |
| 2026-05-04 18:04 | 34.84448 | -117.50368 | 23554 ft | 371 kts | 237° |
| 2026-05-04 18:05 | 34.83050 | -117.53012 | 22802 ft | 371 kts | 237° |
| 2026-05-04 18:05 | 34.81661 | -117.55638 | 22125 ft | 369 kts | 237° |
| 2026-05-04 18:05 | 34.80301 | -117.58205 | 21479 ft | 352 kts | 237° |
| 2026-05-04 18:05 | 34.79011 | -117.60641 | 20952 ft | 331 kts | 237° |
| 2026-05-04 18:06 | 34.76566 | -117.65249 | 19831 ft | 340 kts | 237° |
| 2026-05-04 18:06 | 34.75261 | -117.67706 | 19640 ft | 344 kts | 237° |
| 2026-05-04 18:06 | 34.73983 | -117.70111 | 18876 ft | 346 kts | 237° |
| 2026-05-04 18:07 | 34.72655 | -117.72608 | 17765 ft | 357 kts | 237° |
| 2026-05-04 18:07 | 34.71271 | -117.75208 | 16835 ft | 364 kts | 237° |
| 2026-05-04 18:07 | 34.69897 | -117.77788 | 16100 ft | 364 kts | 237° |
| 2026-05-04 18:07 | 34.68517 | -117.80377 | 15363 ft | 365 kts | 237° |
| 2026-05-04 18:08 | 34.67152 | -117.82936 | 14657 ft | 367 kts | 237° |
| 2026-05-04 18:08 | 34.65803 | -117.85566 | 13915 ft | 368 kts | 242° |
| 2026-05-04 18:08 | 34.64681 | -117.88367 | 13149 ft | 368 kts | 245° |
| 2026-05-04 18:08 | 34.63640 | -117.91184 | 12401 ft | 365 kts | 246° |
| 2026-05-04 18:09 | 34.61610 | -117.96800 | 10922 ft | 360 kts | 246° |
| 2026-05-04 18:09 | 34.59684 | -118.02168 | 10497 ft | 328 kts | 246° |
| 2026-05-04 18:10 | 34.58797 | -118.04640 | 10381 ft | 311 kts | 246° |
| 2026-05-04 18:10 | 34.57958 | -118.06980 | 10293 ft | 295 kts | 246° |
| 2026-05-04 18:10 | 34.57159 | -118.09203 | 10196 ft | 280 kts | 246° |
| 2026-05-04 18:10 | 34.56399 | -118.11318 | 10070 ft | 267 kts | 246° |
| 2026-05-04 18:11 | 34.55674 | -118.13338 | 9970 ft | 256 kts | 246° |
| 2026-05-04 18:11 | 34.54970 | -118.15294 | 9821 ft | 259 kts | 246° |
| 2026-05-04 18:11 | 34.54228 | -118.17352 | 9696 ft | 268 kts | 246° |
| 2026-05-04 18:11 | 34.53488 | -118.19406 | 9321 ft | 264 kts | 246° |
| 2026-05-04 18:12 | 34.52754 | -118.21443 | 8756 ft | 267 kts | 246° |
| 2026-05-04 18:12 | 34.51932 | -118.23470 | 8228 ft | 269 kts | 238° |
| 2026-05-04 18:12 | 34.50641 | -118.25085 | 7841 ft | 267 kts | 215° |
| 2026-05-04 18:12 | 34.48952 | -118.25948 | 7803 ft | 264 kts | 199° |
| 2026-05-04 18:13 | 34.47176 | -118.26527 | 7787 ft | 265 kts | 196° |
| 2026-05-04 18:13 | 34.45395 | -118.27072 | 7767 ft | 262 kts | 197° |
| 2026-05-04 18:13 | 34.41855 | -118.28166 | 7716 ft | 265 kts | 197° |
| 2026-05-04 18:14 | 34.40080 | -118.28719 | 7664 ft | 262 kts | 197° |
| 2026-05-04 18:14 | 34.38328 | -118.29270 | 7640 ft | 261 kts | 197° |
| 2026-05-04 18:14 | 34.36563 | -118.29825 | 7600 ft | 263 kts | 197° |
| 2026-05-04 18:15 | 34.33041 | -118.30926 | 7514 ft | 261 kts | 196° |
| 2026-05-04 18:15 | 34.29438 | -118.31597 | 7322 ft | 262 kts | 188° |
| 2026-05-04 18:15 | 34.27622 | -118.31722 | 7015 ft | 261 kts | 182° |
| 2026-05-04 18:16 | 34.25805 | -118.31461 | 6714 ft | 265 kts | 174° |
| 2026-05-04 18:16 | 34.24003 | -118.31041 | 6405 ft | 265 kts | 173° |
| 2026-05-04 18:16 | 34.22175 | -118.30563 | 6136 ft | 272 kts | 167° |
| 2026-05-04 18:17 | 34.19158 | -118.27834 | 5983 ft | 278 kts | 131° |
| 2026-05-04 18:17 | 34.17928 | -118.26029 | 5986 ft | 277 kts | 131° |
| 2026-05-04 18:17 | 34.15100 | -118.23030 | 5707 ft | 272 kts | 157° |
| 2026-05-04 18:18 | 34.13367 | -118.22153 | 5332 ft | 269 kts | 161° |
| 2026-05-04 18:18 | 34.11635 | -118.21336 | 4940 ft | 266 kts | 161° |
| 2026-05-04 18:18 | 34.09910 | -118.20554 | 4481 ft | 265 kts | 161° |
| 2026-05-04 18:18 | 34.08160 | -118.19781 | 3900 ft | 272 kts | 161° |
| 2026-05-04 18:19 | 34.04579 | -118.18215 | 3034 ft | 267 kts | 162° |
| 2026-05-04 18:19 | 34.02870 | -118.17454 | 2984 ft | 260 kts | 161° |
| 2026-05-04 18:19 | 34.01180 | -118.16682 | 2985 ft | 260 kts | 161° |
| 2026-05-04 18:20 | 33.99490 | -118.15909 | 2989 ft | 260 kts | 160° |
| 2026-05-04 18:20 | 33.97831 | -118.15147 | 2991 ft | 246 kts | 161° |
| 2026-05-04 18:20 | 33.96303 | -118.14434 | 3006 ft | 225 kts | 160° |
| 2026-05-04 18:20 | 33.94878 | -118.13939 | 2988 ft | 202 kts | 171° |
| 2026-05-04 18:21 | 33.93574 | -118.13954 | 3011 ft | 175 kts | 191° |
| 2026-05-04 18:21 | 33.92532 | -118.14458 | 3009 ft | 150 kts | 214° |
| 2026-05-04 18:21 | 33.91846 | -118.15257 | 3014 ft | 129 kts | 234° |
| 2026-05-04 18:21 | 33.91469 | -118.16212 | 3011 ft | 127 kts | 253° |
| 2026-05-04 18:22 | 33.91478 | -118.17275 | 2987 ft | 130 kts | 281° |
| 2026-05-04 18:22 | 33.91886 | -118.18263 | 2991 ft | 133 kts | 296° |
| 2026-05-04 18:22 | 33.92362 | -118.19215 | 3010 ft | 133 kts | 296° |
| 2026-05-04 18:22 | 33.92840 | -118.20176 | 3018 ft | 134 kts | 297° |
| 2026-05-04 18:23 | 33.93318 | -118.21137 | 2946 ft | 134 kts | 296° |
| 2026-05-04 18:23 | 33.93802 | -118.22105 | 2924 ft | 135 kts | 297° |
| 2026-05-04 18:23 | 33.94287 | -118.23075 | 2890 ft | 135 kts | 297° |
| 2026-05-04 18:23 | 33.94769 | -118.24043 | 2839 ft | 134 kts | 296° |
| 2026-05-04 18:24 | 33.95242 | -118.25006 | 2782 ft | 134 kts | 297° |
| 2026-05-04 18:24 | 33.95656 | -118.26002 | 2684 ft | 132 kts | 290° |
| 2026-05-04 18:24 | 33.95961 | -118.27038 | 2567 ft | 131 kts | 283° |
| 2026-05-04 18:24 | 33.96157 | -118.28096 | 2479 ft | 128 kts | 275° |
| 2026-05-04 18:25 | 33.96239 | -118.29159 | 2426 ft | 129 kts | 266° |
| 2026-05-04 18:25 | 33.96222 | -118.29878 | 2261 ft | 130 kts | 265° |
| 2026-05-04 18:25 | 33.96168 | -118.31332 | 1831 ft | 129 kts | 259° |
| 2026-05-04 18:25 | 33.96008 | -118.32393 | 1507 ft | 129 kts | 257° |
| 2026-05-04 18:26 | 33.95898 | -118.33452 | 1286 ft | 126 kts | 263° |
| 2026-05-04 18:26 | 33.95800 | -118.34484 | 1093 ft | 126 kts | 259° |
| 2026-05-04 18:26 | 33.95688 | -118.35538 | 920 ft | 127 kts | 261° |
| 2026-05-04 18:26 | 33.95571 | -118.36579 | 693 ft | 125 kts | 261° |
| 2026-05-04 18:27 | 33.95453 | -118.37601 | 520 ft | 123 kts | 263° |
| 2026-05-04 18:27 | 33.95357 | -118.38628 | 372 ft | 125 kts | 257° |
| 2026-05-04 18:27 | 33.95286 | -118.39326 | 257 ft | 124 kts | 263° |
| 2026-05-04 18:27 | 33.95186 | -118.40356 | 126 ft | 123 kts | 259° |
| 2026-05-04 18:28 | 33.95088 | -118.41297 | 102 ft | 101 kts | 264° |
| 2026-05-04 18:28 | 33.95042 | -118.41759 | 101 ft | 32 kts | 264° |
| 2026-05-04 18:28 | 33.95016 | -118.42013 | 102 ft | 30 kts | 258° |
| 2026-05-04 18:28 | 33.94932 | -118.42202 | 103 ft | 23 kts | 227° |
| 2026-05-04 18:29 | 33.94901 | -118.42238 | 102 ft | 0 kts | 221° |
| 2026-05-04 18:30 | 33.94892 | -118.42247 | 105 ft | 10 kts | 217° |
| 2026-05-04 18:31 | 33.94762 | -118.42283 | 104 ft | 23 kts | 174° |
| 2026-05-04 18:31 | 33.94629 | -118.42249 | 100 ft | 14 kts | 146° |
| 2026-05-04 18:31 | 33.94616 | -118.42137 | 102 ft | 15 kts | 84° |
| 2026-05-04 18:31 | 33.94628 | -118.41995 | 102 ft | 18 kts | 83° |
| 2026-05-04 18:32 | 33.94638 | -118.41840 | 99 ft | 20 kts | 83° |
| 2026-05-04 18:32 | 33.94654 | -118.41661 | 99 ft | 23 kts | 84° |
| 2026-05-04 18:32 | 33.94673 | -118.41458 | 100 ft | 25 kts | 82° |
| 2026-05-04 18:32 | 33.94645 | -118.41284 | 102 ft | 19 kts | 159° |
| 2026-05-04 18:33 | 33.94514 | -118.41256 | 101 ft | 20 kts | 174° |
| 2026-05-04 18:33 | 33.94367 | -118.41236 | 100 ft | 21 kts | 173° |
| 2026-05-04 18:33 | 33.94236 | -118.41217 | 100 ft | 17 kts | 173° |
| 2026-05-04 18:33 | 33.94162 | -118.41201 | 102 ft | 0 kts | 167° |
| 2026-05-04 18:34 | 33.94133 | -118.41198 | 100 ft | 16 kts | 175° |
| 2026-05-04 18:35 | 33.94102 | -118.41185 | 101 ft | 0 kts | 137° |
| 2026-05-04 18:35 | 33.94096 | -118.41160 | 101 ft | 8 kts | 97° |
| 2026-05-04 18:35 | 33.94099 | -118.41085 | 101 ft | 2 kts | 84° |
| 2026-05-04 18:36 | 33.94101 | -118.41061 | 99 ft | 21 kts | 84° |
| 2026-05-04 18:36 | 33.94104 | -118.41045 | 105 ft | 0 kts | 71° |
| 2026-05-04 18:37 | 33.94101 | -118.41062 | 99 ft | 0 kts | 82° |
| 2026-05-04 18:37 | 33.94100 | -118.41076 | 103 ft | 3 kts | 83° |
| 2026-05-04 18:37 | 33.94100 | -118.41078 | 103 ft | 0 kts | 83° |